Blessing, Texas
Current Conditions -  °F | °C
As of 9:53 PM on Friday 24 Oct 2014 (Local Time) from KPSX Reporting Station
Clear Clear  
Wind Chill: 68°   Ceiling: Unl
Heat Index: 68°   Visibility: 10mi
Dew Point: 61°   Wind: 3mph
Humidity: 78%   Direction: 110°ESE
Pressure: 30.14"   Gusts: NA
Location:  28.87°N, 96.22°W
Report Text: KPSX 250253Z AUTO 11003KT 10SM CLR 20/16 A3014 RMK AO2 SLP205 T02000161 53015
Loading
Personal Weather Stations






























Interactive Weather Map
Tropical Storm Tracking
New forecast layout! Learn more

10-Day Weather Forecast

Advertisements
Track Severe Weather on mobile